createdAt,value
2022-09-05T00:01:27.580Z,13.08
2022-09-05T00:07:57.997Z,12.84
2022-09-05T00:13:12.494Z,12.89
2022-09-05T00:24:17.634Z,12.72
2022-09-05T00:25:00.919Z,12.66
2022-09-05T00:31:51.164Z,12.50
2022-09-05T00:36:38.927Z,12.26
2022-09-05T00:42:09.766Z,12.23
2022-09-05T00:47:57.480Z,12.14
2022-09-05T00:53:30.859Z,12.01
2022-09-05T00:59:14.570Z,11.90
2022-09-05T01:05:06.529Z,11.88
2022-09-05T01:10:39.311Z,11.84
2022-09-05T01:16:32.254Z,11.63
2022-09-05T01:22:32.720Z,11.63
2022-09-05T01:29:13.055Z,11.66
2022-09-05T01:33:59.665Z,11.49
2022-09-05T01:40:11.365Z,11.46
2022-09-05T01:46:02.145Z,11.36
2022-09-05T01:51:38.162Z,11.16
2022-09-05T01:57:19.641Z,11.20
2022-09-05T02:03:04.926Z,11.10
2022-09-05T02:08:38.492Z,10.79
2022-09-05T02:14:28.588Z,10.70
2022-09-05T02:20:14.634Z,10.56
2022-09-05T02:26:09.570Z,10.47
2022-09-05T02:31:47.019Z,10.36
2022-09-05T02:37:43.845Z,10.36
2022-09-05T02:45:07.133Z,10.17
2022-09-05T02:49:47.284Z,10.14
2022-09-05T02:57:32.960Z,10.13
2022-09-05T03:01:00.704Z,9.98
2022-09-05T03:06:35.595Z,9.93
2022-09-05T03:12:28.693Z,9.95
2022-09-05T03:18:21.113Z,9.71
2022-09-05T03:24:15.074Z,9.70
2022-09-05T03:30:03.974Z,9.64
2022-09-05T03:35:47.609Z,9.61
2022-09-05T03:41:17.661Z,9.50
2022-09-05T03:46:45.158Z,9.45
2022-09-05T03:57:08.275Z,9.51
2022-09-05T03:58:16.950Z,9.42
2022-09-05T04:08:09.120Z,9.28
2022-09-05T04:09:50.620Z,9.46
2022-09-05T04:15:48.652Z,9.90
2022-09-05T04:21:23.589Z,11.54
2022-09-05T04:26:59.451Z,15.05
2022-09-05T04:32:30.579Z,19.18
2022-09-05T04:37:55.086Z,22.27
2022-09-05T04:43:44.968Z,24.23
2022-09-05T04:49:16.429Z,25.27
2022-09-05T04:54:56.252Z,27.01
2022-09-05T05:06:01.881Z,27.84
2022-09-05T05:06:43.990Z,28.22
2022-09-05T05:17:54.428Z,28.56
2022-09-05T05:18:38.619Z,25.33
2022-09-05T05:24:21.800Z,22.11
2022-09-05T05:29:43.904Z,22.94
2022-09-05T05:35:20.532Z,24.00
2022-09-05T05:41:04.729Z,24.90
2022-09-05T05:46:31.201Z,29.86
2022-09-05T05:52:29.910Z,31.98
2022-09-05T05:58:15.996Z,33.56
2022-09-05T06:03:56.113Z,33.91
2022-09-05T06:14:51.435Z,33.91
2022-09-05T06:15:43.497Z,36.92
2022-09-05T06:22:11.513Z,35.67
2022-09-05T06:28:08.731Z,35.09
2022-09-05T06:34:03.265Z,34.44
2022-09-05T06:39:37.681Z,35.17
2022-09-05T06:45:27.707Z,35.40
2022-09-05T06:51:07.750Z,34.95
2022-09-05T06:57:04.459Z,34.83
2022-09-05T07:02:58.109Z,36.08
2022-09-05T07:08:49.044Z,36.19
2022-09-05T07:14:25.469Z,34.79
2022-09-05T07:19:54.843Z,35.02
2022-09-05T07:25:26.444Z,34.01
2022-09-05T07:31:09.840Z,30.01
2022-09-05T07:36:36.265Z,31.10
2022-09-05T07:42:04.373Z,32.97
2022-09-05T07:47:32.306Z,32.85
2022-09-05T07:56:46.723Z,32.57
2022-09-05T07:58:43.253Z,32.12
2022-09-05T08:04:05.435Z,31.71
2022-09-05T08:10:09.315Z,31.89
2022-09-05T08:15:20.220Z,30.24
2022-09-05T08:20:56.066Z,28.65
2022-09-05T08:26:35.700Z,27.82
2022-09-05T08:32:00.583Z,28.28
2022-09-05T08:37:26.120Z,28.16
2022-09-05T08:45:27.060Z,29.51
2022-09-05T08:49:36.863Z,27.49
2022-09-05T08:55:58.110Z,28.46
2022-09-05T09:01:44.538Z,30.72
2022-09-05T09:07:47.309Z,28.68
2022-09-05T09:13:28.240Z,29.58
2022-09-05T09:18:50.106Z,30.42
2022-09-05T09:24:22.360Z,28.07
2022-09-05T09:29:44.437Z,28.23
2022-09-05T09:35:20.968Z,27.63
2022-09-05T09:41:13.600Z,29.02
2022-09-05T09:46:44.635Z,27.50
2022-09-05T09:52:49.113Z,27.61
2022-09-05T09:58:23.259Z,27.32
2022-09-05T10:10:32.738Z,27.86
2022-09-05T10:10:53.342Z,25.20
2022-09-05T10:16:23.217Z,24.97
2022-09-05T10:22:35.381Z,22.88
2022-09-05T10:28:07.836Z,23.07
2022-09-05T10:35:14.791Z,21.91
2022-09-05T10:39:21.135Z,21.55
2022-09-05T10:44:48.221Z,21.93
2022-09-05T10:50:27.773Z,21.25
2022-09-05T10:55:52.574Z,21.88
2022-09-05T11:02:26.570Z,21.49
2022-09-05T11:07:30.492Z,21.58
2022-09-05T11:13:30.019Z,21.88
2022-09-05T11:19:06.220Z,21.39
2022-09-05T11:24:33.730Z,21.65
2022-09-05T11:30:30.355Z,21.44
2022-09-05T11:40:04.818Z,21.48
2022-09-05T11:42:02.498Z,21.65
2022-09-05T11:47:59.670Z,21.70
2022-09-05T11:53:43.292Z,21.86
2022-09-05T11:59:38.000Z,22.07
2022-09-05T12:05:49.440Z,22.15
2022-09-05T12:11:43.290Z,21.82
2022-09-05T12:17:10.307Z,21.55
2022-09-05T12:22:52.434Z,21.90
2022-09-05T12:29:27.514Z,22.04
2022-09-05T12:36:05.482Z,21.51
2022-09-05T12:41:32.566Z,21.47
2022-09-05T12:45:50.313Z,21.86
2022-09-05T12:51:46.471Z,22.14
2022-09-05T13:01:25.783Z,21.48
2022-09-05T13:03:27.782Z,21.64
2022-09-05T13:08:59.189Z,21.47
2022-09-05T13:14:53.766Z,21.49
2022-09-05T13:20:28.424Z,21.82
2022-09-05T13:25:58.619Z,22.10
2022-09-05T13:37:53.838Z,22.28
2022-09-05T13:38:30.571Z,22.14
2022-09-05T13:43:16.087Z,21.86
2022-09-05T13:54:51.315Z,21.79
2022-09-05T14:00:27.860Z,21.82
2022-09-05T14:06:45.079Z,21.85
2022-09-05T14:12:24.056Z,21.93
2022-09-05T14:17:58.389Z,21.44
2022-09-05T14:23:25.887Z,21.63
2022-09-05T14:29:14.377Z,22.04
2022-09-05T14:37:51.596Z,21.53
2022-09-05T14:41:11.033Z,21.63
2022-09-05T14:46:41.843Z,21.32
2022-09-05T14:52:35.525Z,21.01
2022-09-05T15:02:38.170Z,20.65
2022-09-05T15:12:16.180Z,20.86
2022-09-05T15:15:25.153Z,20.76
2022-09-05T15:20:50.737Z,20.78
2022-09-05T15:26:26.805Z,20.92
2022-09-05T15:31:53.239Z,20.83
2022-09-05T15:37:36.110Z,21.09
2022-09-05T15:43:01.079Z,20.98
2022-09-05T15:48:26.076Z,20.82
2022-09-05T15:53:51.895Z,20.69
2022-09-05T15:59:14.747Z,20.60
2022-09-05T16:08:15.349Z,20.60
2022-09-05T16:10:38.521Z,20.35
2022-09-05T16:22:54.852Z,20.28
2022-09-05T16:23:34.733Z,20.18
2022-09-05T16:27:51.348Z,20.02
2022-09-05T16:33:23.812Z,19.87
2022-09-05T16:39:03.196Z,19.75
2022-09-05T16:44:46.145Z,19.56
2022-09-05T16:50:24.620Z,19.51
2022-09-05T16:56:07.916Z,19.30
2022-09-05T17:01:36.973Z,19.06
2022-09-05T17:07:19.022Z,19.02
2022-09-05T17:12:42.158Z,18.77
2022-09-05T17:18:24.164Z,18.47
2022-09-05T17:28:05.212Z,18.39
2022-09-05T17:36:00.038Z,18.04
2022-09-05T17:41:41.700Z,17.95
2022-09-05T17:47:27.486Z,17.64
2022-09-05T17:53:26.844Z,17.55
2022-09-05T17:59:04.393Z,17.46
2022-09-05T18:04:46.512Z,17.22
2022-09-05T18:10:15.349Z,17.25
2022-09-05T18:15:51.883Z,17.03
2022-09-05T18:21:22.320Z,16.94
2022-09-05T18:33:54.043Z,16.77
2022-09-05T18:38:50.955Z,16.70
2022-09-05T18:44:20.448Z,16.54
2022-09-05T18:50:25.215Z,16.37
2022-09-05T18:56:12.288Z,16.18
2022-09-05T19:01:35.147Z,16.19
2022-09-05T19:06:59.333Z,15.97
2022-09-05T19:12:33.861Z,15.83
2022-09-05T19:18:26.199Z,15.66
2022-09-05T19:23:53.397Z,15.62
2022-09-05T19:36:56.453Z,14.92
2022-09-05T19:37:02.462Z,15.51
2022-09-05T19:47:23.548Z,14.99
2022-09-05T19:47:34.074Z,15.00
2022-09-05T19:52:17.155Z,14.78
2022-09-05T19:57:39.018Z,14.51
2022-09-05T20:03:01.558Z,14.32
2022-09-05T20:08:34.639Z,14.21
2022-09-05T20:14:19.829Z,13.99
2022-09-05T20:19:41.628Z,14.01
2022-09-05T20:25:34.772Z,13.95
2022-09-05T20:30:59.678Z,13.82
2022-09-05T20:43:12.495Z,13.78
2022-09-05T20:43:15.641Z,13.61
2022-09-05T20:54:04.803Z,13.52
2022-09-05T20:54:28.652Z,13.43
2022-09-05T20:59:37.752Z,13.40
2022-09-05T21:05:20.241Z,13.26
2022-09-05T21:10:55.870Z,13.05
2022-09-05T21:16:22.059Z,12.99
2022-09-05T21:21:43.916Z,12.79
2022-09-05T21:27:21.469Z,12.69
2022-09-05T21:32:43.467Z,12.65
2022-09-05T21:38:05.323Z,12.59
2022-09-05T21:47:33.785Z,12.64
2022-09-05T21:49:10.522Z,12.43
2022-09-05T21:59:19.003Z,12.31
2022-09-05T22:00:15.283Z,12.24
2022-09-05T22:05:37.573Z,12.15
2022-09-05T22:10:59.396Z,12.12
2022-09-05T22:16:21.487Z,12.00
2022-09-05T22:21:43.580Z,11.88
2022-09-05T22:27:11.084Z,11.86
2022-09-05T22:32:35.525Z,11.91
2022-09-05T22:38:10.239Z,11.71
2022-09-05T22:43:32.352Z,11.81
2022-09-05T22:48:54.203Z,11.64
2022-09-05T22:54:16.014Z,11.53
2022-09-05T22:59:37.824Z,11.45
2022-09-05T23:04:59.648Z,11.51
2022-09-05T23:10:21.456Z,11.40
2022-09-05T23:15:43.301Z,11.26
2022-09-05T23:21:07.819Z,11.27
2022-09-05T23:26:30.111Z,11.09
2022-09-05T23:31:51.962Z,10.95
2022-09-05T23:37:13.776Z,10.73
2022-09-05T23:42:35.598Z,10.79
2022-09-05T23:47:58.634Z,10.87
2022-09-05T23:53:20.983Z,10.87
2022-09-05T23:58:42.808Z,10.78
